createdAt,value
2022-10-11T00:02:09.765Z,91.15
2022-10-11T00:04:36.586Z,90.86
2022-10-11T00:07:03.418Z,91.05
2022-10-11T00:09:30.536Z,91.10
2022-10-11T00:11:57.434Z,90.85
2022-10-11T00:14:25.839Z,90.65
2022-10-11T00:16:53.219Z,90.36
2022-10-11T00:19:20.406Z,90.25
2022-10-11T00:21:47.566Z,91.25
2022-10-11T00:24:16.064Z,91.48
2022-10-11T00:26:46.743Z,91.05
2022-10-11T00:29:14.240Z,91.48
2022-10-11T00:31:41.097Z,91.40
2022-10-11T00:34:08.782Z,91.11
2022-10-11T00:36:35.810Z,90.95
2022-10-11T00:39:03.102Z,90.63
2022-10-11T00:41:29.975Z,91.30
2022-10-11T00:44:15.411Z,91.27
2022-10-11T00:46:45.135Z,91.32
2022-10-11T00:49:23.520Z,91.05
2022-10-11T00:51:57.223Z,90.69
2022-10-11T00:54:25.996Z,90.54
2022-10-11T00:56:57.500Z,90.41
2022-10-11T00:59:28.491Z,90.58
2022-10-11T01:01:55.999Z,90.63
2022-10-11T01:04:22.971Z,90.61
2022-10-11T01:06:53.523Z,90.71
2022-10-11T01:09:21.532Z,91.05
2022-10-11T01:11:49.303Z,92.55
2022-10-11T01:14:36.497Z,93.42
2022-10-11T01:17:25.158Z,93.06
2022-10-11T01:20:30.760Z,92.96
2022-10-11T01:23:09.693Z,92.75
2022-10-11T01:25:57.629Z,92.62
2022-10-11T01:28:39.462Z,92.75
2022-10-11T01:31:26.598Z,92.83
2022-10-11T01:34:21.344Z,92.52
2022-10-11T01:37:14.720Z,92.54
2022-10-11T01:39:53.558Z,92.78
2022-10-11T01:42:20.881Z,92.61
2022-10-11T01:44:49.159Z,92.36
2022-10-11T01:47:23.596Z,92.57
2022-10-11T01:50:31.612Z,92.85
2022-10-11T01:53:24.967Z,93.28
2022-10-11T01:56:28.182Z,93.14
2022-10-11T01:59:15.262Z,93.10
2022-10-11T02:01:47.934Z,93.85
2022-10-11T02:04:34.741Z,94.51
2022-10-11T02:07:07.875Z,94.82
2022-10-11T02:10:08.051Z,95.33
2022-10-11T02:12:43.229Z,95.14
2022-10-11T02:15:11.673Z,94.89
2022-10-11T02:17:48.391Z,94.58
2022-10-11T02:20:20.032Z,94.77
2022-10-11T02:22:49.291Z,94.59
2022-10-11T02:25:23.391Z,94.53
2022-10-11T02:27:51.504Z,94.35
2022-10-11T02:30:18.493Z,94.13
2022-10-11T02:32:47.178Z,93.87
2022-10-11T02:35:14.286Z,93.96
2022-10-11T02:37:59.489Z,93.87
2022-10-11T02:40:27.813Z,94.18
2022-10-11T02:42:59.766Z,94.04
2022-10-11T02:45:34.965Z,94.02
2022-10-11T02:48:02.594Z,93.83
2022-10-11T02:50:29.430Z,93.59
2022-10-11T02:52:56.185Z,93.54
2022-10-11T02:55:23.051Z,93.54
2022-10-11T02:57:49.812Z,93.62
2022-10-11T03:00:16.743Z,93.71
2022-10-11T03:02:43.629Z,94.06
2022-10-11T03:05:10.407Z,94.17
2022-10-11T03:07:37.249Z,94.46
2022-10-11T03:10:05.809Z,94.48
2022-10-11T03:12:32.749Z,94.41
2022-10-11T03:14:59.573Z,94.18
2022-10-11T03:17:42.581Z,94.02
2022-10-11T03:20:09.923Z,93.85
2022-10-11T03:22:36.803Z,93.75
2022-10-11T03:25:04.798Z,93.85
2022-10-11T03:27:33.289Z,93.83
2022-10-11T03:30:00.535Z,93.70
2022-10-11T03:32:28.219Z,93.83
2022-10-11T03:34:55.391Z,94.08
2022-10-11T03:37:22.331Z,95.39
2022-10-11T03:39:49.211Z,96.59
2022-10-11T03:42:16.870Z,96.79
2022-10-11T03:44:43.609Z,97.80
2022-10-11T03:47:10.602Z,97.12
2022-10-11T03:49:42.596Z,96.79
2022-10-11T03:52:10.797Z,96.50
2022-10-11T03:54:37.592Z,96.88
2022-10-11T03:57:04.559Z,96.86
2022-10-11T03:59:31.509Z,96.69
2022-10-11T04:01:58.340Z,96.63
2022-10-11T04:04:25.147Z,96.32
2022-10-11T04:06:51.891Z,96.03
2022-10-11T04:09:18.761Z,95.93
2022-10-11T04:11:45.575Z,96.00
2022-10-11T04:14:12.356Z,95.95
2022-10-11T04:16:40.136Z,96.44
2022-10-11T04:19:06.960Z,97.29
2022-10-11T04:21:33.795Z,97.91
2022-10-11T04:24:00.669Z,97.30
2022-10-11T04:26:27.516Z,97.34
2022-10-11T04:28:54.431Z,96.95
2022-10-11T04:31:21.278Z,96.19
2022-10-11T04:33:48.193Z,95.64
2022-10-11T04:36:15.020Z,95.45
2022-10-11T04:38:41.921Z,95.31
2022-10-11T04:41:11.106Z,94.88
2022-10-11T04:43:38.151Z,94.79
2022-10-11T04:46:06.086Z,94.52
2022-10-11T04:48:33.282Z,94.63
2022-10-11T04:51:00.185Z,94.76
2022-10-11T04:53:27.051Z,94.76
2022-10-11T04:56:02.036Z,94.77
2022-10-11T04:58:30.356Z,95.03
2022-10-11T05:00:57.514Z,95.74
2022-10-11T05:03:24.907Z,96.25
2022-10-11T05:05:52.904Z,95.81
2022-10-11T05:08:20.237Z,96.17
2022-10-11T05:10:57.798Z,95.98
2022-10-11T05:13:25.217Z,95.63
2022-10-11T05:15:52.244Z,95.47
2022-10-11T05:18:19.321Z,95.58
2022-10-11T05:20:46.471Z,95.39
2022-10-11T05:23:13.422Z,95.58
2022-10-11T05:25:40.728Z,95.70
2022-10-11T05:28:07.770Z,95.05
2022-10-11T05:30:34.556Z,94.89
2022-10-11T05:33:01.427Z,94.64
2022-10-11T05:35:28.261Z,94.99
2022-10-11T05:37:55.071Z,94.40
2022-10-11T05:40:21.873Z,93.86
2022-10-11T05:42:48.692Z,93.76
2022-10-11T05:45:15.641Z,93.87
2022-10-11T05:47:42.516Z,93.27
2022-10-11T05:50:09.813Z,91.89
2022-10-11T05:52:36.675Z,91.80
2022-10-11T05:55:03.802Z,91.61
2022-10-11T05:57:30.703Z,92.08
2022-10-11T05:59:57.840Z,92.44
2022-10-11T06:02:24.648Z,93.18
2022-10-11T06:04:51.440Z,93.13
2022-10-11T06:07:18.307Z,93.12
2022-10-11T06:09:45.155Z,94.22
2022-10-11T06:12:12.033Z,93.13
2022-10-11T06:14:38.850Z,93.18
2022-10-11T06:17:05.894Z,92.94
2022-10-11T06:19:32.820Z,91.93
2022-10-11T06:21:59.639Z,91.42
2022-10-11T06:24:26.584Z,90.51
2022-10-11T06:26:54.496Z,89.93
2022-10-11T06:29:22.091Z,88.64
2022-10-11T06:31:49.239Z,88.53
2022-10-11T06:34:16.178Z,88.12
2022-10-11T06:36:43.079Z,87.61
2022-10-11T06:39:10.079Z,84.52
2022-10-11T06:41:36.977Z,86.02
2022-10-11T06:44:03.916Z,85.16
2022-10-11T06:46:31.760Z,84.70
2022-10-11T06:48:58.804Z,84.90
2022-10-11T06:51:25.927Z,84.74
2022-10-11T06:53:55.593Z,84.32
2022-10-11T06:56:22.692Z,83.95
2022-10-11T06:58:51.190Z,82.83
2022-10-11T07:01:20.069Z,82.50
2022-10-11T07:03:47.901Z,81.87
2022-10-11T07:06:17.763Z,79.87
2022-10-11T07:08:45.053Z,79.72
2022-10-11T07:11:16.779Z,78.44
2022-10-11T07:13:45.962Z,78.77
2022-10-11T07:16:13.128Z,78.19
2022-10-11T07:18:39.960Z,76.47
2022-10-11T07:21:09.475Z,76.58
2022-10-11T07:23:36.572Z,75.05
2022-10-11T07:26:04.420Z,74.08
2022-10-11T07:28:31.681Z,72.04
2022-10-11T07:30:59.320Z,72.52
2022-10-11T07:33:26.303Z,71.37
2022-10-11T07:35:57.091Z,71.47
2022-10-11T07:38:24.026Z,70.34
2022-10-11T07:40:50.858Z,70.53
2022-10-11T07:43:17.830Z,69.79
2022-10-11T07:45:51.401Z,69.33
2022-10-11T07:48:18.347Z,68.37
2022-10-11T07:50:46.086Z,67.82
2022-10-11T07:53:12.996Z,68.31
2022-10-11T07:55:40.245Z,68.03
2022-10-11T07:58:11.871Z,67.89
2022-10-11T08:00:39.780Z,67.53
2022-10-11T08:03:07.046Z,67.19
2022-10-11T08:05:34.508Z,67.67
2022-10-11T08:08:01.400Z,67.41
2022-10-11T08:10:28.497Z,67.29
2022-10-11T08:12:55.293Z,66.30
2022-10-11T08:15:22.241Z,67.08
2022-10-11T08:17:49.173Z,67.01
2022-10-11T08:20:16.197Z,67.10
2022-10-11T08:22:43.028Z,66.74
2022-10-11T08:25:09.832Z,66.51
2022-10-11T08:27:36.719Z,66.23
2022-10-11T08:30:04.525Z,65.42
2022-10-11T08:32:31.626Z,65.86
2022-10-11T08:34:58.442Z,65.18
2022-10-11T08:37:25.454Z,64.29
2022-10-11T08:39:52.575Z,64.61
2022-10-11T08:42:31.187Z,63.81
2022-10-11T08:45:16.694Z,64.26
2022-10-11T08:47:45.048Z,64.06
2022-10-11T08:50:19.022Z,64.21
2022-10-11T08:52:58.431Z,63.68
2022-10-11T08:55:45.030Z,62.76
2022-10-11T08:58:15.148Z,62.07
2022-10-11T09:00:42.717Z,61.71
2022-10-11T09:03:30.788Z,62.55
2022-10-11T09:06:20.395Z,60.97
2022-10-11T09:09:10.376Z,61.38
2022-10-11T09:12:05.737Z,61.15
2022-10-11T09:15:11.174Z,60.64
2022-10-11T09:17:50.880Z,61.02
2022-10-11T09:20:29.799Z,61.36
2022-10-11T09:23:11.383Z,60.88
2022-10-11T09:25:49.854Z,58.81
2022-10-11T09:28:43.099Z,60.75
2022-10-11T09:31:11.205Z,60.96
2022-10-11T09:33:47.008Z,61.29
2022-10-11T09:36:39.296Z,60.77
2022-10-11T09:39:33.888Z,60.28
2022-10-11T09:42:00.666Z,61.37
2022-10-11T09:44:36.730Z,60.94
2022-10-11T09:47:04.255Z,60.50
2022-10-11T09:49:36.781Z,60.81
2022-10-11T09:52:10.975Z,60.16
2022-10-11T09:54:43.908Z,60.21
2022-10-11T09:57:30.774Z,60.38
2022-10-11T10:00:23.785Z,60.14
2022-10-11T10:02:58.086Z,59.25
2022-10-11T10:05:30.120Z,59.37
2022-10-11T10:08:09.380Z,59.28
2022-10-11T10:11:03.087Z,59.96
2022-10-11T10:13:35.849Z,58.78
2022-10-11T10:16:04.278Z,59.09
2022-10-11T10:18:37.606Z,58.77
2022-10-11T10:21:07.932Z,58.89
2022-10-11T10:23:36.857Z,58.49
2022-10-11T10:26:19.058Z,58.22
2022-10-11T10:29:10.597Z,58.93
2022-10-11T10:35:03.772Z,59.20
2022-10-11T10:38:02.182Z,59.17
2022-10-11T10:40:45.462Z,59.44
2022-10-11T10:43:20.673Z,58.37
2022-10-11T10:46:24.311Z,59.42
2022-10-11T10:49:34.871Z,57.86
2022-10-11T10:52:06.418Z,58.32
2022-10-11T10:55:04.383Z,58.69
2022-10-11T10:57:56.983Z,58.20
2022-10-11T11:00:24.687Z,58.42
2022-10-11T11:03:22.228Z,58.68
2022-10-11T11:06:00.950Z,58.28
2022-10-11T11:08:30.669Z,57.95
2022-10-11T11:11:22.125Z,59.16
2022-10-11T11:14:14.884Z,58.12
2022-10-11T11:17:28.323Z,58.87
2022-10-11T11:20:03.866Z,57.57
2022-10-11T11:22:56.188Z,58.61
2022-10-11T11:25:35.256Z,58.39
2022-10-11T11:28:14.363Z,57.76
2022-10-11T11:31:10.226Z,58.07
2022-10-11T11:34:24.948Z,59.29
2022-10-11T11:36:54.726Z,60.02
2022-10-11T11:39:29.629Z,58.13
2022-10-11T11:42:12.373Z,59.35
2022-10-11T11:44:45.841Z,58.77
2022-10-11T11:47:17.856Z,57.68
2022-10-11T11:50:03.646Z,57.12
2022-10-11T11:52:41.493Z,56.71
2022-10-11T11:55:11.318Z,56.31
2022-10-11T11:57:44.745Z,54.95
2022-10-11T12:00:22.898Z,56.28
2022-10-11T12:03:02.041Z,55.53
2022-10-11T12:05:32.936Z,56.66
2022-10-11T12:08:01.919Z,56.66
2022-10-11T12:10:31.296Z,56.70
2022-10-11T12:13:18.624Z,55.73
2022-10-11T12:15:59.276Z,55.29
2022-10-11T12:18:26.505Z,56.26
2022-10-11T12:21:08.723Z,55.50
2022-10-11T12:23:44.402Z,55.05
2022-10-11T12:26:29.159Z,56.42
2022-10-11T12:29:03.867Z,57.71
2022-10-11T12:31:34.105Z,57.08
2022-10-11T12:34:01.091Z,56.21
2022-10-11T12:36:42.094Z,55.38
2022-10-11T12:39:20.758Z,55.63
2022-10-11T12:44:26.467Z,56.07
2022-10-11T12:46:59.361Z,56.19
2022-10-11T12:49:29.188Z,56.68
2022-10-11T12:52:03.862Z,55.81
2022-10-11T12:54:42.528Z,56.12
2022-10-11T12:57:12.084Z,56.40
2022-10-11T12:59:46.506Z,56.30
2022-10-11T13:02:28.908Z,55.37
2022-10-11T13:05:19.068Z,55.39
2022-10-11T13:07:46.574Z,54.71
2022-10-11T13:10:23.121Z,55.28
2022-10-11T13:12:50.145Z,55.10
2022-10-11T13:15:19.611Z,54.13
2022-10-11T13:17:48.655Z,53.73
2022-10-11T13:20:15.371Z,54.01
2022-10-11T13:22:42.310Z,55.99
2022-10-11T13:25:09.637Z,54.52
2022-10-11T13:27:37.105Z,55.41
2022-10-11T13:30:08.562Z,55.07
2022-10-11T13:32:36.549Z,54.68
2022-10-11T13:35:06.538Z,54.75
2022-10-11T13:37:42.788Z,54.33
2022-10-11T13:40:13.561Z,54.24
2022-10-11T13:42:40.796Z,54.63
2022-10-11T13:45:13.124Z,55.55
2022-10-11T13:47:40.393Z,54.03
2022-10-11T13:50:22.711Z,55.53
2022-10-11T13:53:00.314Z,52.72
2022-10-11T13:55:42.250Z,52.21
2022-10-11T13:58:18.378Z,52.70
2022-10-11T14:01:03.790Z,52.72
2022-10-11T14:03:40.952Z,52.15
2022-10-11T14:06:08.485Z,52.58
2022-10-11T14:08:47.323Z,53.26
2022-10-11T14:11:15.116Z,53.61
2022-10-11T14:13:44.129Z,53.68
2022-10-11T14:16:28.349Z,54.83
2022-10-11T14:18:58.062Z,54.82
2022-10-11T14:22:00.251Z,56.25
2022-10-11T14:24:27.567Z,56.85
2022-10-11T14:26:55.910Z,56.46
2022-10-11T14:29:34.060Z,56.64
2022-10-11T14:32:19.457Z,57.49
2022-10-11T14:34:47.891Z,57.22
2022-10-11T14:37:18.623Z,57.22
2022-10-11T14:39:47.783Z,57.79
2022-10-11T14:42:15.086Z,58.27
2022-10-11T14:44:42.146Z,59.09
2022-10-11T14:47:14.940Z,59.36
2022-10-11T14:49:42.112Z,59.80
2022-10-11T14:52:12.011Z,59.81
2022-10-11T14:54:39.314Z,59.92
2022-10-11T14:57:06.199Z,60.68
2022-10-11T14:59:37.744Z,60.71
2022-10-11T15:02:06.685Z,60.55
2022-10-11T15:04:33.740Z,60.74
2022-10-11T15:07:00.975Z,60.97
2022-10-11T15:09:27.980Z,61.32
2022-10-11T15:11:55.240Z,61.52
2022-10-11T15:14:23.855Z,61.83
2022-10-11T15:16:50.750Z,62.32
2022-10-11T15:19:24.183Z,62.72
2022-10-11T15:21:51.738Z,62.94
2022-10-11T15:24:21.900Z,63.07
2022-10-11T15:26:49.013Z,63.40
2022-10-11T15:29:20.404Z,63.99
2022-10-11T15:31:49.238Z,64.57
2022-10-11T15:34:16.809Z,65.09
2022-10-11T15:36:52.151Z,65.68
2022-10-11T15:39:24.415Z,66.06
2022-10-11T15:41:51.298Z,66.71
2022-10-11T15:44:18.075Z,67.02
2022-10-11T15:46:44.944Z,67.50
2022-10-11T15:49:13.473Z,68.01
2022-10-11T15:51:40.494Z,68.84
2022-10-11T15:54:07.322Z,69.45
2022-10-11T15:56:34.315Z,70.01
2022-10-11T15:59:02.029Z,70.55
2022-10-11T16:01:28.889Z,71.27
2022-10-11T16:03:55.820Z,71.86
2022-10-11T16:06:22.996Z,72.18
2022-10-11T16:08:50.108Z,72.56
2022-10-11T16:11:17.075Z,72.84
2022-10-11T16:13:45.064Z,73.23
2022-10-11T16:16:12.419Z,73.63
2022-10-11T16:18:39.804Z,73.91
2022-10-11T16:21:11.098Z,74.34
2022-10-11T16:23:38.764Z,74.87
2022-10-11T16:26:08.322Z,75.05
2022-10-11T16:28:35.891Z,75.78
2022-10-11T16:31:07.970Z,76.08
2022-10-11T16:33:34.943Z,76.48
2022-10-11T16:36:25.998Z,76.73
2022-10-11T16:38:52.837Z,77.06
2022-10-11T16:41:19.659Z,77.33
2022-10-11T16:43:51.029Z,79.33
2022-10-11T16:46:18.672Z,80.66
2022-10-11T16:48:45.539Z,79.92
2022-10-11T16:51:12.431Z,81.92
2022-10-11T16:53:39.159Z,81.68
2022-10-11T16:56:11.224Z,81.10
2022-10-11T16:58:38.072Z,81.51
2022-10-11T17:01:09.874Z,81.33
2022-10-11T17:03:37.257Z,81.76
2022-10-11T17:06:05.193Z,81.90
2022-10-11T17:08:32.281Z,82.10
2022-10-11T17:10:59.227Z,82.47
2022-10-11T17:13:26.099Z,82.73
2022-10-11T17:15:53.130Z,82.91
2022-10-11T17:18:19.973Z,83.25
2022-10-11T17:20:46.833Z,83.41
2022-10-11T17:23:13.795Z,83.29
2022-10-11T17:25:42.675Z,84.07
2022-10-11T17:28:09.793Z,84.39
2022-10-11T17:30:37.397Z,84.21
2022-10-11T17:33:04.351Z,83.92
2022-10-11T17:35:32.363Z,83.90
2022-10-11T17:38:05.756Z,83.73
2022-10-11T17:40:33.059Z,83.68
2022-10-11T17:43:00.015Z,83.65
2022-10-11T17:45:26.831Z,83.69
2022-10-11T17:47:53.943Z,84.67
2022-10-11T17:50:20.983Z,84.77
2022-10-11T17:52:47.945Z,85.10
2022-10-11T17:55:15.032Z,85.45
2022-10-11T17:57:42.068Z,85.52
2022-10-11T18:00:09.920Z,85.72
2022-10-11T18:02:38.561Z,85.85
2022-10-11T18:05:06.785Z,86.52
2022-10-11T18:07:34.229Z,86.59
2022-10-11T18:10:01.166Z,86.80
2022-10-11T18:12:28.152Z,86.66
2022-10-11T18:14:54.986Z,86.64
2022-10-11T18:17:21.874Z,86.67
2022-10-11T18:19:48.919Z,86.62
2022-10-11T18:22:15.879Z,86.53
2022-10-11T18:24:42.682Z,86.47
2022-10-11T18:27:09.529Z,86.83
2022-10-11T18:29:38.033Z,87.11
2022-10-11T18:32:05.213Z,87.71
2022-10-11T18:34:33.446Z,87.64
2022-10-11T18:37:00.637Z,87.60
2022-10-11T18:39:27.597Z,87.63
2022-10-11T18:41:54.484Z,87.59
2022-10-11T18:44:21.314Z,87.72
2022-10-11T18:46:50.225Z,88.29
2022-10-11T18:49:17.122Z,88.22
2022-10-11T18:51:45.385Z,88.28
2022-10-11T18:54:15.398Z,88.41
2022-10-11T18:56:45.761Z,88.67
2022-10-11T18:59:12.761Z,89.02
2022-10-11T19:01:41.874Z,88.91
2022-10-11T19:04:09.820Z,88.88
2022-10-11T19:06:43.040Z,88.95
2022-10-11T19:09:12.707Z,89.09
2022-10-11T19:11:40.208Z,89.10
2022-10-11T19:14:11.362Z,89.21
2022-10-11T19:16:41.841Z,89.22
2022-10-11T19:19:10.627Z,89.21
2022-10-11T19:21:38.162Z,89.45
2022-10-11T19:24:05.461Z,89.79
2022-10-11T19:26:35.095Z,90.04
2022-10-11T19:29:05.468Z,90.30
2022-10-11T19:31:34.119Z,90.56
2022-10-11T19:34:01.041Z,90.69
2022-10-11T19:36:31.398Z,90.79
2022-10-11T19:39:00.978Z,90.74
2022-10-11T19:41:27.824Z,90.88
2022-10-11T19:43:55.417Z,90.73
2022-10-11T19:46:44.328Z,90.86
2022-10-11T19:49:09.684Z,91.08
2022-10-11T19:51:38.106Z,91.18
2022-10-11T19:54:07.999Z,91.26
2022-10-11T19:56:35.238Z,91.42
2022-10-11T19:59:02.516Z,91.43
2022-10-11T20:01:30.964Z,91.59
2022-10-11T20:04:09.369Z,91.72
2022-10-11T20:06:39.055Z,92.04
2022-10-11T20:09:28.496Z,91.88
2022-10-11T20:11:56.657Z,92.12
2022-10-11T20:14:23.517Z,92.77
2022-10-11T20:16:51.058Z,93.21
2022-10-11T20:19:18.617Z,93.25
2022-10-11T20:21:45.551Z,93.64
2022-10-11T20:24:12.569Z,93.73
2022-10-11T20:26:39.928Z,93.71
2022-10-11T20:29:07.185Z,94.32
2022-10-11T20:31:38.070Z,94.65
2022-10-11T20:34:07.326Z,94.08
2022-10-11T20:36:36.098Z,93.82
2022-10-11T20:39:04.779Z,93.78
2022-10-11T20:41:34.669Z,94.33
2022-10-11T20:44:02.582Z,95.68
2022-10-11T20:46:32.294Z,95.15
2022-10-11T20:49:04.621Z,94.72
2022-10-11T20:51:32.876Z,94.40
2022-10-11T20:54:00.692Z,94.05
2022-10-11T20:56:28.134Z,93.81
2022-10-11T20:58:56.264Z,93.95
2022-10-11T21:01:32.158Z,93.97
2022-10-11T21:04:00.095Z,94.07
2022-10-11T21:06:27.503Z,93.81
2022-10-11T21:08:55.392Z,93.69
2022-10-11T21:11:28.551Z,93.63
2022-10-11T21:13:59.996Z,93.53
2022-10-11T21:16:27.413Z,93.50
2022-10-11T21:18:56.002Z,93.51
2022-10-11T21:21:25.998Z,94.04
2022-10-11T21:24:00.240Z,94.05
2022-10-11T21:26:27.500Z,94.77
2022-10-11T21:28:54.575Z,94.71
2022-10-11T21:31:22.085Z,94.64
2022-10-11T21:33:49.517Z,94.40
2022-10-11T21:36:18.789Z,94.91
2022-10-11T21:38:46.249Z,96.08
2022-10-11T21:41:15.782Z,96.03
2022-10-11T21:43:42.728Z,95.93
2022-10-11T21:46:16.263Z,97.35
2022-10-11T21:48:43.451Z,99.52
2022-10-11T21:51:16.373Z,98.99
2022-10-11T21:53:43.226Z,98.17
2022-10-11T21:56:10.036Z,98.32
2022-10-11T21:58:37.168Z,98.02
2022-10-11T22:01:04.044Z,98.85
2022-10-11T22:03:30.930Z,100.00
2022-10-11T22:05:57.744Z,100.00
2022-10-11T22:08:24.621Z,100.00
2022-10-11T22:10:57.111Z,100.00
2022-10-11T22:13:25.157Z,99.61
2022-10-11T22:15:52.038Z,99.14
2022-10-11T22:18:18.901Z,98.59
2022-10-11T22:20:45.691Z,98.22
2022-10-11T22:23:12.623Z,98.12
2022-10-11T22:25:39.819Z,97.87
2022-10-11T22:28:07.273Z,98.87
2022-10-11T22:30:34.648Z,100.00
2022-10-11T22:33:01.462Z,100.00
2022-10-11T22:35:28.662Z,100.00
2022-10-11T22:37:56.465Z,100.00
2022-10-11T22:40:23.235Z,100.00
2022-10-11T22:42:50.002Z,100.00
2022-10-11T22:45:16.796Z,100.00
2022-10-11T22:47:43.578Z,100.00
2022-10-11T22:50:10.531Z,100.00
2022-10-11T22:52:37.517Z,100.00
2022-10-11T22:55:04.516Z,100.00
2022-10-11T22:57:31.380Z,100.00
2022-10-11T22:59:58.147Z,100.00
2022-10-11T23:02:24.975Z,100.00
2022-10-11T23:04:53.818Z,100.00
2022-10-11T23:07:20.576Z,99.79
2022-10-11T23:09:48.080Z,99.57
2022-10-11T23:12:14.915Z,99.42
2022-10-11T23:14:41.718Z,99.19
2022-10-11T23:17:08.538Z,98.94
2022-10-11T23:19:37.067Z,98.66
2022-10-11T23:22:03.933Z,98.41
2022-10-11T23:24:30.694Z,98.33
2022-10-11T23:26:57.568Z,98.29
2022-10-11T23:29:24.427Z,98.15
2022-10-11T23:31:51.486Z,97.88
2022-10-11T23:34:18.281Z,97.48
2022-10-11T23:36:45.062Z,97.30
2022-10-11T23:39:12.847Z,96.96
2022-10-11T23:41:39.676Z,96.72
2022-10-11T23:44:06.512Z,96.74
2022-10-11T23:46:33.341Z,96.61
2022-10-11T23:49:00.205Z,96.68
2022-10-11T23:51:27.026Z,96.82
2022-10-11T23:53:54.109Z,96.82
2022-10-11T23:56:21.306Z,96.74
2022-10-11T23:58:48.232Z,96.69
